createdAt,value
2018-02-23T00:01:16.159Z,55.01
2018-02-23T00:03:43.728Z,54.96
2018-02-23T00:06:11.483Z,55.85
2018-02-23T00:08:39.043Z,55.02
2018-02-23T00:11:06.559Z,55.58
2018-02-23T00:13:34.142Z,55.75
2018-02-23T00:16:01.664Z,55.38
2018-02-23T00:18:29.220Z,55.73
2018-02-23T00:20:56.744Z,54.79
2018-02-23T00:23:24.327Z,55.21
2018-02-23T00:25:51.859Z,55.87
2018-02-23T00:28:19.432Z,55.91
2018-02-23T00:30:46.954Z,55.00
2018-02-23T00:33:14.516Z,55.02
2018-02-23T00:35:42.067Z,55.96
2018-02-23T00:38:09.620Z,56.34
2018-02-23T00:40:37.162Z,55.62
2018-02-23T00:43:04.760Z,55.35
2018-02-23T00:45:32.320Z,55.65
2018-02-23T00:47:59.844Z,55.97
2018-02-23T00:50:27.404Z,55.23
2018-02-23T00:52:54.937Z,56.33
2018-02-23T00:55:24.640Z,55.28
2018-02-23T00:57:52.163Z,55.23
2018-02-23T01:00:19.741Z,55.15
2018-02-23T01:02:47.293Z,55.45
2018-02-23T01:05:14.861Z,55.62
2018-02-23T01:07:42.448Z,55.72
2018-02-23T01:10:09.971Z,54.97
2018-02-23T01:12:38.771Z,55.94
2018-02-23T01:15:06.470Z,55.26
2018-02-23T01:17:34.144Z,55.95
2018-02-23T01:20:01.752Z,55.76
2018-02-23T01:22:29.706Z,55.33
2018-02-23T01:24:57.280Z,55.25
2018-02-23T01:27:24.807Z,55.80
2018-02-23T01:29:52.372Z,56.08
2018-02-23T01:32:19.892Z,55.69
2018-02-23T01:34:47.645Z,55.60
2018-02-23T01:37:15.179Z,55.24
2018-02-23T01:39:42.755Z,56.25
2018-02-23T01:42:10.326Z,55.44
2018-02-23T01:44:37.844Z,55.64
2018-02-23T01:47:05.403Z,55.75
2018-02-23T01:49:32.994Z,55.53
2018-02-23T01:52:00.583Z,55.26
2018-02-23T01:54:28.114Z,56.26
2018-02-23T01:56:55.681Z,55.79
2018-02-23T01:59:23.264Z,56.42
2018-02-23T02:01:50.840Z,55.53
2018-02-23T02:04:18.357Z,56.14
2018-02-23T02:06:45.925Z,56.46
2018-02-23T02:09:13.555Z,56.16
2018-02-23T02:11:42.018Z,55.53
2018-02-23T02:14:09.583Z,55.80
2018-02-23T02:16:37.120Z,56.02
2018-02-23T02:19:04.751Z,56.52
2018-02-23T02:21:32.359Z,55.86
2018-02-23T02:23:59.941Z,56.51
2018-02-23T02:26:27.514Z,56.50
2018-02-23T02:28:55.068Z,56.85
2018-02-23T02:31:22.640Z,55.89
2018-02-23T02:33:50.187Z,56.36
2018-02-23T02:36:17.760Z,56.72
2018-02-23T02:38:45.303Z,56.29
2018-02-23T02:41:12.873Z,56.17
2018-02-23T02:43:40.399Z,56.91
2018-02-23T02:46:07.970Z,56.26
2018-02-23T02:48:35.544Z,56.42
2018-02-23T02:51:03.096Z,56.63
2018-02-23T02:53:30.652Z,56.70
2018-02-23T02:55:58.179Z,56.02
2018-02-23T02:58:25.762Z,56.80
2018-02-23T03:00:53.297Z,56.73
2018-02-23T03:03:20.843Z,56.60
2018-02-23T03:05:48.400Z,56.41
2018-02-23T03:08:15.924Z,56.06
2018-02-23T03:10:43.528Z,56.83
2018-02-23T03:13:11.074Z,56.73
2018-02-23T03:15:38.664Z,56.39
2018-02-23T03:18:06.199Z,57.13
2018-02-23T03:20:33.723Z,56.38
2018-02-23T03:23:01.415Z,57.17
2018-02-23T03:25:28.940Z,57.42
2018-02-23T03:27:56.494Z,57.09
2018-02-23T03:30:24.011Z,57.32
2018-02-23T03:32:51.568Z,57.19
2018-02-23T03:35:19.104Z,56.77
2018-02-23T03:37:46.660Z,57.14
2018-02-23T03:40:14.186Z,57.38
2018-02-23T03:42:42.308Z,57.30
2018-02-23T03:45:09.864Z,57.15
2018-02-23T03:47:37.388Z,57.81
2018-02-23T03:50:06.961Z,57.61
2018-02-23T03:52:34.493Z,57.42
2018-02-23T03:55:02.083Z,56.91
2018-02-23T03:57:29.599Z,57.80
2018-02-23T03:59:57.176Z,57.76
2018-02-23T04:02:24.710Z,57.08
2018-02-23T04:04:52.240Z,57.49
2018-02-23T04:07:19.817Z,57.51
2018-02-23T04:09:47.337Z,58.27
2018-02-23T04:12:14.913Z,57.88
2018-02-23T04:14:42.758Z,57.46
2018-02-23T04:17:10.315Z,57.12
2018-02-23T04:19:37.835Z,57.67
2018-02-23T04:22:05.420Z,57.28
2018-02-23T04:24:32.984Z,57.49
2018-02-23T04:27:00.503Z,58.22
2018-02-23T04:29:28.136Z,58.10
2018-02-23T04:31:55.655Z,58.12
2018-02-23T04:34:23.219Z,57.48
2018-02-23T04:36:50.756Z,58.34
2018-02-23T04:39:18.336Z,58.43
2018-02-23T04:41:45.886Z,57.49
2018-02-23T04:44:13.416Z,57.84
2018-02-23T04:46:40.964Z,57.94
2018-02-23T04:49:08.501Z,57.59
2018-02-23T04:51:36.059Z,57.58
2018-02-23T04:54:03.587Z,57.44
2018-02-23T04:56:31.144Z,57.25
2018-02-23T04:58:58.704Z,57.12
2018-02-23T05:01:26.281Z,57.31
2018-02-23T05:03:53.835Z,57.19
2018-02-23T05:06:21.422Z,57.99
2018-02-23T05:08:48.956Z,57.52
2018-02-23T05:11:16.487Z,57.39
2018-02-23T05:13:44.111Z,57.10
2018-02-23T05:16:11.639Z,57.27
2018-02-23T05:18:39.224Z,57.63
2018-02-23T05:21:06.747Z,58.18
2018-02-23T05:23:34.317Z,57.80
2018-02-23T05:26:01.837Z,58.69
2018-02-23T05:28:29.461Z,58.08
2018-02-23T05:30:57.012Z,58.14
2018-02-23T05:33:24.576Z,57.49
2018-02-23T05:35:52.139Z,57.67
2018-02-23T05:38:27.234Z,57.71
2018-02-23T05:40:54.763Z,57.65
2018-02-23T05:43:22.319Z,57.21
2018-02-23T05:45:49.941Z,57.64
2018-02-23T05:48:17.567Z,58.13
2018-02-23T05:50:48.474Z,57.99
2018-02-23T05:53:16.549Z,58.16
2018-02-23T05:55:44.063Z,57.31
2018-02-23T05:58:11.625Z,57.23
2018-02-23T06:00:39.144Z,57.57
2018-02-23T06:03:06.714Z,57.31
2018-02-23T06:05:34.237Z,57.59
2018-02-23T06:08:01.788Z,57.28
2018-02-23T06:10:29.399Z,57.91
2018-02-23T06:12:56.969Z,57.38
2018-02-23T06:15:26.067Z,58.18
2018-02-23T06:17:59.329Z,57.86
2018-02-23T06:20:28.540Z,57.36
2018-02-23T06:22:56.080Z,57.51
2018-02-23T06:25:23.641Z,58.03
2018-02-23T06:27:51.229Z,57.72
2018-02-23T06:30:18.862Z,57.34
2018-02-23T06:32:46.389Z,57.38
2018-02-23T06:35:14.000Z,57.66
2018-02-23T06:37:41.532Z,58.08
2018-02-23T06:40:09.105Z,57.39
2018-02-23T06:42:36.647Z,56.98
2018-02-23T06:45:04.197Z,56.83
2018-02-23T06:47:31.756Z,57.70
2018-02-23T06:49:59.280Z,57.04
2018-02-23T06:52:26.838Z,56.91
2018-02-23T06:54:54.379Z,56.90
2018-02-23T06:57:21.964Z,57.60
2018-02-23T06:59:49.505Z,57.45
2018-02-23T07:02:17.107Z,57.83
2018-02-23T07:04:45.025Z,56.95
2018-02-23T07:07:12.560Z,56.23
2018-02-23T07:09:40.116Z,56.57
2018-02-23T07:12:07.680Z,56.23
2018-02-23T07:14:35.244Z,56.03
2018-02-23T07:17:02.807Z,56.32
2018-02-23T07:19:30.377Z,56.14
2018-02-23T07:21:57.907Z,56.66
2018-02-23T07:24:25.497Z,56.18
2018-02-23T07:26:53.039Z,56.50
2018-02-23T07:29:20.560Z,55.92
2018-02-23T07:31:48.121Z,55.83
2018-02-23T07:34:15.674Z,56.42
2018-02-23T07:36:43.245Z,55.79
2018-02-23T07:39:10.796Z,55.64
2018-02-23T07:41:38.385Z,55.54
2018-02-23T07:44:05.927Z,55.77
2018-02-23T07:46:33.488Z,55.77
2018-02-23T07:49:01.009Z,55.67
2018-02-23T07:51:28.612Z,56.31
2018-02-23T07:53:56.258Z,55.89
2018-02-23T07:56:24.667Z,55.76
2018-02-23T07:58:52.252Z,55.39
2018-02-23T08:01:19.801Z,55.64
2018-02-23T08:03:47.372Z,55.48
2018-02-23T08:06:15.615Z,55.79
2018-02-23T08:08:43.178Z,55.65
2018-02-23T08:11:10.715Z,55.73
2018-02-23T08:13:38.268Z,55.79
2018-02-23T08:16:05.912Z,56.03
2018-02-23T08:18:33.510Z,55.13
2018-02-23T08:21:01.092Z,54.85
2018-02-23T08:23:28.664Z,55.07
2018-02-23T08:25:56.211Z,54.85
2018-02-23T08:28:23.910Z,54.21
2018-02-23T08:30:51.448Z,55.03
2018-02-23T08:33:18.977Z,55.27
2018-02-23T08:35:46.539Z,54.43
2018-02-23T08:38:14.061Z,54.20
2018-02-23T08:40:41.612Z,54.42
2018-02-23T08:43:09.258Z,55.17
2018-02-23T08:45:36.817Z,55.17
2018-02-23T08:48:04.357Z,55.08
2018-02-23T08:50:31.918Z,54.51
2018-02-23T08:52:59.441Z,54.22
2018-02-23T08:55:27.066Z,53.99
2018-02-23T08:57:54.603Z,54.15
2018-02-23T09:00:26.929Z,54.07
2018-02-23T09:02:54.481Z,54.53
2018-02-23T09:05:22.011Z,54.27
2018-02-23T09:07:49.577Z,54.49
2018-02-23T09:10:17.108Z,54.92
2018-02-23T09:12:44.677Z,54.47
2018-02-23T09:15:12.243Z,53.73
2018-02-23T09:17:39.808Z,54.67
2018-02-23T09:20:07.340Z,54.01
2018-02-23T09:22:34.927Z,53.79
2018-02-23T09:25:02.469Z,54.06
2018-02-23T09:27:30.052Z,54.33
2018-02-23T09:29:57.573Z,53.93
2018-02-23T09:32:36.971Z,53.41
2018-02-23T09:35:04.529Z,54.02
2018-02-23T09:37:32.064Z,53.47
2018-02-23T09:39:59.611Z,53.87
2018-02-23T09:42:27.131Z,53.57
2018-02-23T09:44:54.718Z,53.30
2018-02-23T09:47:22.258Z,53.10
2018-02-23T09:49:49.831Z,53.62
2018-02-23T09:52:17.350Z,53.24
2018-02-23T09:54:44.926Z,53.67
2018-02-23T09:57:12.529Z,53.55
2018-02-23T09:59:40.144Z,53.05
2018-02-23T10:02:07.676Z,53.31
2018-02-23T10:04:35.196Z,53.47
2018-02-23T10:07:03.496Z,52.99
2018-02-23T10:09:31.108Z,52.57
2018-02-23T10:11:58.679Z,52.87
2018-02-23T10:14:26.220Z,53.10
2018-02-23T10:16:53.796Z,53.09
2018-02-23T10:19:21.342Z,52.58
2018-02-23T10:21:48.932Z,53.17
2018-02-23T10:24:16.495Z,52.88
2018-02-23T10:26:44.080Z,52.58
2018-02-23T10:29:11.625Z,53.01
2018-02-23T10:31:39.155Z,53.48
2018-02-23T10:34:06.732Z,52.01
2018-02-23T10:36:36.401Z,52.42
2018-02-23T10:39:06.875Z,52.02
2018-02-23T10:41:35.295Z,52.75
2018-02-23T10:44:04.237Z,52.76
2018-02-23T10:46:32.827Z,53.12
2018-02-23T10:49:00.760Z,52.11
2018-02-23T10:51:29.803Z,52.10
2018-02-23T10:53:58.128Z,52.21
2018-02-23T10:56:27.093Z,52.04
2018-02-23T10:58:55.859Z,52.25
2018-02-23T11:01:27.092Z,52.01
2018-02-23T11:03:57.000Z,52.30
2018-02-23T11:06:26.480Z,51.84
2018-02-23T11:08:54.152Z,51.19
2018-02-23T11:11:23.635Z,51.65
2018-02-23T11:13:53.030Z,51.20
2018-02-23T11:16:22.669Z,51.71
2018-02-23T11:18:51.919Z,51.53
2018-02-23T11:21:21.765Z,50.93
2018-02-23T11:23:51.482Z,51.10
2018-02-23T11:26:21.552Z,50.61
2018-02-23T11:28:49.663Z,50.92
2018-02-23T11:31:17.744Z,50.76
2018-02-23T11:33:48.081Z,50.48
2018-02-23T11:36:17.024Z,50.73
2018-02-23T11:38:45.343Z,51.45
2018-02-23T11:41:12.997Z,50.53
2018-02-23T11:43:42.942Z,57.29
2018-02-23T11:46:13.878Z,52.36
2018-02-23T11:48:42.775Z,51.47
2018-02-23T11:51:11.130Z,50.08
2018-02-23T11:53:42.647Z,52.93
2018-02-23T11:56:12.729Z,52.40
2018-02-23T11:58:40.515Z,50.96
2018-02-23T12:01:09.769Z,50.26
2018-02-23T12:03:40.842Z,49.32
2018-02-23T12:06:08.750Z,48.87
2018-02-23T12:08:39.561Z,48.94
2018-02-23T12:11:09.460Z,49.42
2018-02-23T12:13:38.252Z,47.96
2018-02-23T12:16:07.961Z,47.93
2018-02-23T12:18:37.155Z,48.46
2018-02-23T12:21:06.374Z,48.12
2018-02-23T12:23:34.039Z,48.52
2018-02-23T12:26:01.604Z,47.81
2018-02-23T12:28:29.132Z,47.54
2018-02-23T12:30:56.655Z,48.01
2018-02-23T12:33:24.205Z,46.93
2018-02-23T12:35:51.737Z,47.94
2018-02-23T12:38:19.303Z,47.34
2018-02-23T12:40:46.949Z,47.99
2018-02-23T12:43:14.506Z,48.51
2018-02-23T12:45:42.035Z,47.37
2018-02-23T12:48:09.628Z,47.27
2018-02-23T12:50:37.184Z,46.79
2018-02-23T12:53:04.765Z,46.99
2018-02-23T12:55:32.748Z,47.37
2018-02-23T12:58:00.320Z,46.25
2018-02-23T13:00:27.843Z,46.48
2018-02-23T13:02:55.369Z,46.82
2018-02-23T13:05:23.410Z,46.28
2018-02-23T13:07:50.951Z,46.60
2018-02-23T13:10:19.373Z,45.92
2018-02-23T13:12:47.055Z,45.82
2018-02-23T13:15:19.512Z,46.56
2018-02-23T13:17:47.111Z,46.12
2018-02-23T13:20:14.843Z,45.90
2018-02-23T13:22:42.383Z,46.41
2018-02-23T13:25:09.976Z,46.67
2018-02-23T13:27:37.497Z,46.33
2018-02-23T13:30:05.020Z,46.46
2018-02-23T13:32:32.661Z,45.93
2018-02-23T13:35:00.229Z,45.70
2018-02-23T13:37:27.783Z,46.30
2018-02-23T13:39:55.370Z,45.94
2018-02-23T13:42:22.927Z,45.21
2018-02-23T13:44:50.484Z,45.04
2018-02-23T13:47:18.032Z,46.44
2018-02-23T13:49:45.560Z,46.09
2018-02-23T13:52:13.144Z,44.64
2018-02-23T13:54:41.570Z,44.78
2018-02-23T13:57:09.389Z,44.55
2018-02-23T13:59:42.448Z,45.48
2018-02-23T14:02:16.861Z,45.06
2018-02-23T14:04:53.484Z,45.21
2018-02-23T14:07:32.057Z,44.64
2018-02-23T14:10:04.202Z,44.23
2018-02-23T14:12:36.289Z,44.45
2018-02-23T14:15:14.876Z,43.73
2018-02-23T14:17:47.331Z,44.53
2018-02-23T14:20:21.881Z,43.94
2018-02-23T14:22:53.714Z,43.76
2018-02-23T14:25:27.831Z,43.43
2018-02-23T14:28:03.778Z,44.05
2018-02-23T14:30:37.194Z,43.72
2018-02-23T14:33:09.698Z,43.50
2018-02-23T14:38:19.692Z,43.29
2018-02-23T14:40:53.745Z,43.51
2018-02-23T14:43:28.996Z,42.65
2018-02-23T14:46:03.336Z,43.25
2018-02-23T14:48:47.343Z,41.71
2018-02-23T14:51:22.814Z,42.64
2018-02-23T14:53:57.524Z,42.18
2018-02-23T14:56:31.855Z,42.53
2018-02-23T14:59:03.930Z,42.38
2018-02-23T15:01:40.223Z,42.52
2018-02-23T15:06:52.069Z,41.73
2018-02-23T15:09:23.931Z,41.45
2018-02-23T15:11:59.926Z,41.35
2018-02-23T15:14:33.339Z,41.38
2018-02-23T15:17:06.474Z,41.37
2018-02-23T15:19:40.183Z,41.32
2018-02-23T15:22:13.733Z,40.78
2018-02-23T15:24:47.260Z,41.88
2018-02-23T15:27:21.451Z,40.26
2018-02-23T15:29:53.930Z,40.78
2018-02-23T15:32:42.378Z,41.52
2018-02-23T15:35:21.900Z,41.79
2018-02-23T15:40:30.359Z,40.79
2018-02-23T15:43:04.140Z,40.31
2018-02-23T15:45:39.074Z,40.88
2018-02-23T15:48:11.647Z,40.83
2018-02-23T15:50:53.623Z,41.00
2018-02-23T15:53:27.206Z,40.37
2018-02-23T15:56:02.266Z,40.96
2018-02-23T15:58:46.016Z,39.71
2018-02-23T16:01:20.307Z,40.82
2018-02-23T16:03:53.012Z,40.59
2018-02-23T16:06:26.944Z,40.14
2018-02-23T16:08:58.403Z,40.16
2018-02-23T16:11:31.427Z,40.34
2018-02-23T16:14:05.367Z,40.32
2018-02-23T16:16:37.830Z,40.50
2018-02-23T16:19:14.892Z,40.48
2018-02-23T16:24:28.706Z,41.47
2018-02-23T16:27:01.390Z,40.76
2018-02-23T16:29:36.637Z,40.98
2018-02-23T16:32:09.824Z,42.20
2018-02-23T16:34:43.822Z,41.86
2018-02-23T16:37:15.944Z,41.74
2018-02-23T16:39:55.002Z,42.55
2018-02-23T16:42:33.462Z,41.66
2018-02-23T16:45:05.976Z,42.57
2018-02-23T16:47:40.761Z,43.26
2018-02-23T16:50:12.301Z,42.27
2018-02-23T16:52:40.466Z,43.71
2018-02-23T16:55:10.753Z,44.27
2018-02-23T16:57:40.215Z,42.99
2018-02-23T17:00:11.023Z,43.48
2018-02-23T17:02:39.552Z,43.24
2018-02-23T17:05:08.342Z,43.46
2018-02-23T17:07:36.784Z,44.06
2018-02-23T17:10:06.125Z,44.15
2018-02-23T17:12:34.780Z,43.83
2018-02-23T17:15:04.682Z,44.18
2018-02-23T17:17:33.579Z,44.67
2018-02-23T17:20:03.934Z,44.67
2018-02-23T17:22:31.775Z,44.86
2018-02-23T17:25:00.800Z,45.01
2018-02-23T17:27:31.592Z,44.62
2018-02-23T17:30:03.507Z,44.36
2018-02-23T17:32:32.769Z,44.86
2018-02-23T17:35:02.375Z,44.79
2018-02-23T17:37:30.950Z,45.03
2018-02-23T17:40:01.581Z,45.06
2018-02-23T17:42:31.815Z,45.42
2018-02-23T17:45:04.759Z,44.90
2018-02-23T17:47:44.312Z,46.14
2018-02-23T17:50:13.501Z,45.86
2018-02-23T17:52:41.496Z,45.94
2018-02-23T17:55:09.691Z,46.03
2018-02-23T17:57:37.727Z,45.96
2018-02-23T18:00:05.287Z,47.43
2018-02-23T18:02:32.823Z,47.04
2018-02-23T18:05:00.370Z,46.55
2018-02-23T18:07:27.892Z,47.23
2018-02-23T18:09:55.440Z,47.44
2018-02-23T18:12:23.693Z,47.39
2018-02-23T18:14:51.243Z,47.23
2018-02-23T18:17:19.204Z,47.08
2018-02-23T18:19:47.259Z,47.07
2018-02-23T18:22:14.854Z,46.94
2018-02-23T18:24:42.380Z,47.81
2018-02-23T18:27:09.950Z,47.34
2018-02-23T18:29:38.876Z,47.45
2018-02-23T18:32:06.796Z,48.25
2018-02-23T18:34:34.332Z,48.55
2018-02-23T18:37:01.880Z,47.87
2018-02-23T18:39:29.449Z,47.90
2018-02-23T18:41:57.181Z,48.23
2018-02-23T18:44:24.758Z,48.44
2018-02-23T18:46:52.360Z,48.60
2018-02-23T18:49:20.834Z,48.22
2018-02-23T18:51:48.448Z,47.90
2018-02-23T18:54:16.836Z,48.20
2018-02-23T18:56:44.569Z,48.36
2018-02-23T18:59:12.832Z,48.88
2018-02-23T19:01:40.442Z,48.08
2018-02-23T19:04:08.019Z,48.37
2018-02-23T19:06:35.552Z,48.51
2018-02-23T19:09:03.083Z,48.21
2018-02-23T19:11:30.665Z,48.81
2018-02-23T19:13:58.240Z,48.49
2018-02-23T19:16:25.839Z,48.47
2018-02-23T19:18:53.691Z,48.88
2018-02-23T19:21:21.246Z,48.60
2018-02-23T19:23:48.847Z,48.42
2018-02-23T19:26:16.399Z,48.40
2018-02-23T19:28:43.930Z,48.08
2018-02-23T19:31:11.620Z,48.47
2018-02-23T19:33:39.290Z,48.65
2018-02-23T19:36:06.871Z,48.39
2018-02-23T19:38:34.428Z,48.03
2018-02-23T19:41:02.030Z,48.42
2018-02-23T19:43:29.598Z,49.30
2018-02-23T19:45:57.147Z,48.87
2018-02-23T19:48:24.691Z,48.61
2018-02-23T19:50:52.420Z,48.31
2018-02-23T19:53:20.860Z,49.08
2018-02-23T19:55:48.383Z,48.56
2018-02-23T19:58:15.948Z,49.83
2018-02-23T20:00:43.479Z,49.04
2018-02-23T20:03:11.036Z,48.70
2018-02-23T20:05:38.595Z,49.02
2018-02-23T20:08:06.138Z,48.83
2018-02-23T20:10:33.704Z,49.06
2018-02-23T20:13:01.233Z,48.38
2018-02-23T20:15:28.826Z,50.99
2018-02-23T20:17:56.438Z,50.75
2018-02-23T20:20:23.968Z,50.22
2018-02-23T20:22:51.491Z,48.06
2018-02-23T20:25:20.206Z,47.76
2018-02-23T20:27:48.013Z,47.87
2018-02-23T20:30:16.009Z,48.20
2018-02-23T20:32:43.600Z,48.22
2018-02-23T20:35:11.164Z,48.90
2018-02-23T20:37:38.737Z,48.22
2018-02-23T20:40:07.021Z,47.80
2018-02-23T20:42:35.224Z,48.51
2018-02-23T20:45:03.083Z,48.04
2018-02-23T20:47:30.760Z,47.64
2018-02-23T20:49:58.303Z,49.00
2018-02-23T20:52:25.888Z,48.71
2018-02-23T20:54:53.790Z,48.30
2018-02-23T20:57:21.434Z,48.53
2018-02-23T20:59:48.984Z,49.05
2018-02-23T21:02:16.782Z,48.97
2018-02-23T21:04:44.408Z,49.10
2018-02-23T21:07:11.936Z,48.96
2018-02-23T21:09:39.709Z,48.42
2018-02-23T21:12:07.547Z,49.69
2018-02-23T21:14:35.096Z,49.48
2018-02-23T21:17:02.699Z,48.67
2018-02-23T21:19:30.259Z,49.34
2018-02-23T21:21:57.922Z,49.85
2018-02-23T21:24:26.086Z,49.84
2018-02-23T21:26:54.292Z,49.34
2018-02-23T21:29:26.012Z,49.31
2018-02-23T21:31:56.836Z,49.89
2018-02-23T21:34:26.871Z,52.20
2018-02-23T21:36:56.046Z,49.76
2018-02-23T21:39:26.710Z,49.38
2018-02-23T21:41:57.719Z,50.09
2018-02-23T21:44:28.184Z,50.08
2018-02-23T21:46:56.488Z,50.86
2018-02-23T21:49:25.192Z,50.75
2018-02-23T21:51:55.381Z,49.84
2018-02-23T21:54:24.384Z,49.95
2018-02-23T21:56:52.872Z,50.17
2018-02-23T21:59:21.320Z,50.61
2018-02-23T22:01:49.755Z,50.61
2018-02-23T22:04:17.292Z,50.49
2018-02-23T22:06:44.894Z,50.93
2018-02-23T22:09:12.445Z,51.19
2018-02-23T22:11:41.539Z,51.56
2018-02-23T22:14:10.905Z,50.81
2018-02-23T22:16:38.508Z,51.56
2018-02-23T22:19:06.808Z,51.15
2018-02-23T22:21:34.991Z,51.02
2018-02-23T22:24:02.560Z,51.21
2018-02-23T22:26:30.099Z,51.72
2018-02-23T22:28:57.676Z,51.63
2018-02-23T22:31:25.215Z,51.85
2018-02-23T22:33:52.789Z,51.78
2018-02-23T22:36:20.325Z,51.70
2018-02-23T22:38:47.982Z,51.53
2018-02-23T22:41:15.535Z,51.33
2018-02-23T22:43:43.077Z,52.22
2018-02-23T22:46:10.641Z,51.99
2018-02-23T22:48:38.171Z,52.03
2018-02-23T22:51:05.724Z,51.96
2018-02-23T22:53:33.287Z,52.46
2018-02-23T22:56:00.873Z,52.01
2018-02-23T22:58:28.403Z,52.30
2018-02-23T23:00:55.967Z,51.85
2018-02-23T23:03:24.144Z,52.64
2018-02-23T23:05:51.670Z,52.77
2018-02-23T23:08:19.239Z,53.07
2018-02-23T23:10:46.771Z,52.91
2018-02-23T23:13:14.335Z,52.48
2018-02-23T23:15:41.860Z,52.75
2018-02-23T23:18:09.459Z,52.92
2018-02-23T23:20:36.994Z,53.58
2018-02-23T23:23:04.571Z,52.88
2018-02-23T23:25:32.091Z,53.95
2018-02-23T23:27:59.679Z,53.57
2018-02-23T23:30:27.872Z,52.81
2018-02-23T23:32:55.436Z,53.10
2018-02-23T23:35:22.975Z,53.04
2018-02-23T23:37:50.507Z,53.08
2018-02-23T23:40:18.534Z,53.30
2018-02-23T23:42:46.442Z,53.76
2018-02-23T23:45:14.091Z,53.51
2018-02-23T23:47:42.094Z,53.67
2018-02-23T23:50:09.965Z,53.30
2018-02-23T23:52:37.700Z,54.51
2018-02-23T23:55:05.486Z,54.23
2018-02-23T23:57:33.042Z,53.74
